createdAt,value
2023-05-25T00:02:27.331Z,87.98
2023-05-25T00:04:55.590Z,87.33
2023-05-25T00:07:23.852Z,86.47
2023-05-25T00:09:53.514Z,85.76
2023-05-25T00:12:21.756Z,83.68
2023-05-25T00:14:50.130Z,82.66
2023-05-25T00:17:18.801Z,82.67
2023-05-25T00:19:47.203Z,82.03
2023-05-25T00:22:15.535Z,82.36
2023-05-25T00:24:43.815Z,81.43
2023-05-25T00:27:13.505Z,81.11
2023-05-25T00:29:41.817Z,81.06
2023-05-25T00:32:10.024Z,80.82
2023-05-25T00:34:38.400Z,80.95
2023-05-25T00:37:07.206Z,80.70
2023-05-25T00:39:35.472Z,80.62
2023-05-25T00:42:03.852Z,80.51
2023-05-25T00:44:33.493Z,81.20
2023-05-25T00:47:03.012Z,80.78
2023-05-25T00:49:34.946Z,80.50
2023-05-25T00:52:03.738Z,80.50
2023-05-25T00:54:33.593Z,80.20
2023-05-25T00:57:04.490Z,80.35
2023-05-25T00:59:40.793Z,80.14
2023-05-25T01:02:10.672Z,80.33
2023-05-25T01:04:45.479Z,80.39
2023-05-25T01:07:19.403Z,80.63
2023-05-25T01:09:49.322Z,80.75
2023-05-25T01:12:19.256Z,80.82
2023-05-25T01:14:49.295Z,80.05
2023-05-25T01:17:20.505Z,80.01
2023-05-25T01:20:01.655Z,80.08
2023-05-25T01:22:44.442Z,80.17
2023-05-25T01:25:21.674Z,80.10
2023-05-25T01:27:55.815Z,79.81
2023-05-25T01:30:34.312Z,79.11
2023-05-25T01:33:03.310Z,79.12
2023-05-25T01:35:32.480Z,78.90
2023-05-25T01:38:02.834Z,77.01
2023-05-25T01:40:32.678Z,76.55
2023-05-25T01:43:02.463Z,76.09
2023-05-25T01:45:33.056Z,75.67
2023-05-25T01:48:09.680Z,75.50
2023-05-25T01:50:44.517Z,75.36
2023-05-25T01:53:21.793Z,75.30
2023-05-25T01:55:56.240Z,75.03
2023-05-25T01:58:27.676Z,74.97
2023-05-25T02:00:57.594Z,74.88
2023-05-25T02:03:26.108Z,74.83
2023-05-25T02:05:57.922Z,74.69
2023-05-25T02:08:27.542Z,74.92
2023-05-25T02:10:55.778Z,74.93
2023-05-25T02:13:23.996Z,74.94
2023-05-25T02:15:52.382Z,74.86
2023-05-25T02:18:20.929Z,74.86
2023-05-25T02:20:49.151Z,74.83
2023-05-25T02:23:18.666Z,74.97
2023-05-25T02:25:48.250Z,74.87
2023-05-25T02:28:17.971Z,74.81
2023-05-25T02:30:46.239Z,74.76
2023-05-25T02:33:14.515Z,74.83
2023-05-25T02:35:43.007Z,74.65
2023-05-25T02:38:12.429Z,74.51
2023-05-25T02:40:40.668Z,74.73
2023-05-25T02:43:10.309Z,74.84
2023-05-25T02:45:39.885Z,74.97
2023-05-25T02:48:08.521Z,75.15
2023-05-25T02:50:37.073Z,75.09
2023-05-25T02:53:11.123Z,75.00
2023-05-25T02:55:40.541Z,75.14
2023-05-25T02:58:12.927Z,75.01
2023-05-25T03:01:01.241Z,75.14
2023-05-25T03:03:30.333Z,75.09
2023-05-25T03:05:58.887Z,75.01
2023-05-25T03:08:27.327Z,75.09
2023-05-25T03:10:55.945Z,75.14
2023-05-25T03:13:25.633Z,75.19
2023-05-25T03:15:53.907Z,74.99
2023-05-25T03:18:22.257Z,74.94
2023-05-25T03:20:51.827Z,75.03
2023-05-25T03:23:20.114Z,75.13
2023-05-25T03:25:49.193Z,75.24
2023-05-25T03:28:18.798Z,75.47
2023-05-25T03:30:48.476Z,75.38
2023-05-25T03:33:17.096Z,75.47
2023-05-25T03:35:48.918Z,75.41
2023-05-25T03:38:17.309Z,75.25
2023-05-25T03:40:46.166Z,75.32
2023-05-25T03:43:14.530Z,75.40
2023-05-25T03:45:46.165Z,75.44
2023-05-25T03:48:16.103Z,75.62
2023-05-25T03:50:44.332Z,75.50
2023-05-25T03:53:12.539Z,75.47
2023-05-25T03:55:42.035Z,75.47
2023-05-25T03:58:11.079Z,75.14
2023-05-25T04:00:39.320Z,75.04
2023-05-25T04:03:10.986Z,74.79
2023-05-25T04:05:42.161Z,75.03
2023-05-25T04:08:10.829Z,75.16
2023-05-25T04:10:39.145Z,75.03
2023-05-25T04:13:07.400Z,75.06
2023-05-25T04:15:35.724Z,75.30
2023-05-25T04:18:09.219Z,75.34
2023-05-25T04:20:37.874Z,75.22
2023-05-25T04:23:08.763Z,75.03
2023-05-25T04:25:38.122Z,74.99
2023-05-25T04:28:08.436Z,75.00
2023-05-25T04:30:58.129Z,75.15
2023-05-25T04:33:34.284Z,75.23
2023-05-25T04:36:15.570Z,75.32
2023-05-25T04:38:48.453Z,74.98
2023-05-25T04:41:17.838Z,75.20
2023-05-25T04:44:06.879Z,75.34
2023-05-25T04:46:39.091Z,75.02
2023-05-25T04:49:09.970Z,74.97
2023-05-25T04:51:38.272Z,74.97
2023-05-25T04:54:08.010Z,74.99
2023-05-25T04:56:36.508Z,74.90
2023-05-25T04:59:06.389Z,74.81
2023-05-25T05:01:40.871Z,74.78
2023-05-25T05:04:11.316Z,74.64
2023-05-25T05:06:40.780Z,74.62
2023-05-25T05:09:11.859Z,74.64
2023-05-25T05:11:40.116Z,74.57
2023-05-25T05:14:09.173Z,74.45
2023-05-25T05:16:37.514Z,74.45
2023-05-25T05:19:06.167Z,74.41
2023-05-25T05:21:34.616Z,74.11
2023-05-25T05:24:06.236Z,74.16
2023-05-25T05:26:48.275Z,74.24
2023-05-25T05:29:28.688Z,74.14
2023-05-25T05:31:57.354Z,74.09
2023-05-25T05:34:26.835Z,74.15
2023-05-25T05:36:58.417Z,74.11
2023-05-25T05:39:29.053Z,74.03
2023-05-25T05:41:59.243Z,73.77
2023-05-25T05:44:29.488Z,73.48
2023-05-25T05:47:01.722Z,73.52
2023-05-25T05:49:31.926Z,73.48
2023-05-25T05:52:02.081Z,73.32
2023-05-25T05:54:30.566Z,73.25
2023-05-25T05:57:04.058Z,73.09
2023-05-25T05:59:32.285Z,73.18
2023-05-25T06:02:00.656Z,72.89
2023-05-25T06:04:29.224Z,72.72
2023-05-25T06:06:59.231Z,73.17
2023-05-25T06:09:27.679Z,72.90
2023-05-25T06:11:59.985Z,72.86
2023-05-25T06:14:29.828Z,72.78
2023-05-25T06:17:02.547Z,73.28
2023-05-25T06:19:31.082Z,72.56
2023-05-25T06:21:59.635Z,72.35
2023-05-25T06:24:27.898Z,71.75
2023-05-25T06:26:56.161Z,72.44
2023-05-25T06:29:24.519Z,72.08
2023-05-25T06:31:54.109Z,71.69
2023-05-25T06:34:22.486Z,71.90
2023-05-25T06:36:51.188Z,71.89
2023-05-25T06:39:20.289Z,71.35
2023-05-25T06:41:49.163Z,71.38
2023-05-25T06:44:27.600Z,71.38
2023-05-25T06:46:57.238Z,71.10
2023-05-25T06:49:26.290Z,71.15
2023-05-25T06:51:54.492Z,71.22
2023-05-25T06:54:22.822Z,70.88
2023-05-25T06:56:51.200Z,70.58
2023-05-25T06:59:19.479Z,69.87
2023-05-25T07:01:48.209Z,69.95
2023-05-25T07:04:21.612Z,69.46
2023-05-25T07:06:49.885Z,69.54
2023-05-25T07:09:18.119Z,68.32
2023-05-25T07:11:49.383Z,69.20
2023-05-25T07:14:18.665Z,68.62
2023-05-25T07:16:46.923Z,68.75
2023-05-25T07:19:15.168Z,68.78
2023-05-25T07:21:44.780Z,68.66
2023-05-25T07:24:13.008Z,68.71
2023-05-25T07:26:41.236Z,68.93
2023-05-25T07:29:09.504Z,68.48
2023-05-25T07:31:37.950Z,68.36
2023-05-25T07:34:06.226Z,68.13
2023-05-25T07:36:34.515Z,67.99
2023-05-25T07:39:04.272Z,68.49
2023-05-25T07:41:33.733Z,68.30
2023-05-25T07:44:02.031Z,67.92
2023-05-25T07:46:30.366Z,67.84
2023-05-25T07:48:59.751Z,67.81
2023-05-25T07:51:31.175Z,67.72
2023-05-25T07:53:59.537Z,67.02
2023-05-25T07:56:29.114Z,68.23
2023-05-25T07:58:58.078Z,66.30
2023-05-25T08:01:27.125Z,66.75
2023-05-25T08:03:55.691Z,67.77
2023-05-25T08:06:24.491Z,66.63
2023-05-25T08:08:52.788Z,66.11
2023-05-25T08:11:26.390Z,64.96
2023-05-25T08:13:56.088Z,65.26
2023-05-25T08:16:24.418Z,65.58
2023-05-25T08:18:52.813Z,64.95
2023-05-25T08:21:21.124Z,65.16
2023-05-25T08:23:50.723Z,65.24
2023-05-25T08:26:37.933Z,64.76
2023-05-25T08:29:08.640Z,63.74
2023-05-25T08:31:37.338Z,63.47
2023-05-25T08:34:05.688Z,63.54
2023-05-25T08:41:12.836Z,64.11
2023-05-25T08:43:43.128Z,63.40
2023-05-25T08:46:13.059Z,63.51
2023-05-25T08:48:42.948Z,63.38
2023-05-25T08:51:14.437Z,62.08
2023-05-25T08:53:44.936Z,62.37
2023-05-25T08:56:20.328Z,62.25
2023-05-25T08:58:59.059Z,61.28
2023-05-25T09:01:31.926Z,62.46
2023-05-25T09:04:02.414Z,64.16
2023-05-25T09:06:31.764Z,62.01
2023-05-25T09:09:00.120Z,61.02
2023-05-25T09:11:38.643Z,61.73
2023-05-25T09:14:08.793Z,61.74
2023-05-25T09:16:39.349Z,61.76
2023-05-25T09:19:07.589Z,60.98
2023-05-25T09:21:36.059Z,62.53
2023-05-25T09:24:04.414Z,62.86
2023-05-25T09:26:32.717Z,62.62
2023-05-25T09:29:02.111Z,62.55
2023-05-25T09:31:30.588Z,62.03
2023-05-25T09:34:01.053Z,61.63
2023-05-25T09:36:29.496Z,62.23
2023-05-25T09:38:58.272Z,63.02
2023-05-25T09:41:29.281Z,61.65
2023-05-25T09:44:06.637Z,60.46
2023-05-25T09:46:39.829Z,60.55
2023-05-25T09:49:10.781Z,60.03
2023-05-25T09:51:39.405Z,60.30
2023-05-25T09:54:11.660Z,60.44
2023-05-25T09:56:39.861Z,61.34
2023-05-25T09:59:08.321Z,60.84
2023-05-25T10:01:37.324Z,60.79
2023-05-25T10:04:06.004Z,60.14
2023-05-25T10:06:36.118Z,59.21
2023-05-25T10:09:06.882Z,58.25
2023-05-25T10:11:37.205Z,57.59
2023-05-25T10:14:08.729Z,92.88
2023-05-25T10:16:41.207Z,96.62
2023-05-25T10:19:18.236Z,99.84
2023-05-25T10:21:51.732Z,102.89
2023-05-25T10:24:28.176Z,102.50
2023-05-25T10:27:07.737Z,103.24
2023-05-25T10:29:45.614Z,104.02
2023-05-25T10:32:16.164Z,102.35
2023-05-25T10:34:44.870Z,103.79
2023-05-25T10:37:15.906Z,102.82
2023-05-25T10:39:44.901Z,101.36
2023-05-25T10:42:13.756Z,102.46
2023-05-25T10:44:43.433Z,101.99
2023-05-25T10:47:13.010Z,103.16
2023-05-25T10:49:54.181Z,100.49
2023-05-25T10:52:28.757Z,100.45
2023-05-25T10:54:57.949Z,102.51
2023-05-25T10:57:27.434Z,103.70
2023-05-25T11:00:01.631Z,102.00
2023-05-25T11:02:32.262Z,102.67
2023-05-25T11:05:32.661Z,104.13
2023-05-25T11:08:04.384Z,104.51
2023-05-25T11:10:53.363Z,103.42
2023-05-25T11:13:34.009Z,105.52
2023-05-25T11:16:36.125Z,100.90
2023-05-25T11:19:04.744Z,103.85
2023-05-25T11:21:43.824Z,100.97
2023-05-25T11:24:18.542Z,101.53
2023-05-25T11:26:57.656Z,103.23
2023-05-25T11:29:27.235Z,103.95
2023-05-25T11:31:57.277Z,104.24
2023-05-25T11:34:26.288Z,103.12
2023-05-25T11:37:01.707Z,104.37
2023-05-25T11:39:32.199Z,105.19
2023-05-25T11:42:05.011Z,102.60
2023-05-25T11:44:34.608Z,100.26
2023-05-25T11:47:06.062Z,102.78
2023-05-25T11:49:34.393Z,99.03
2023-05-25T11:52:07.454Z,100.79
2023-05-25T11:54:37.264Z,102.89
2023-05-25T11:57:06.453Z,98.69
2023-05-25T11:59:34.788Z,102.01
2023-05-25T12:02:05.108Z,100.39
2023-05-25T12:04:35.227Z,99.29
2023-05-25T12:07:04.360Z,99.56
2023-05-25T12:09:32.843Z,101.37
2023-05-25T12:12:05.056Z,100.36
2023-05-25T12:14:36.157Z,100.31
2023-05-25T12:17:04.756Z,101.05
2023-05-25T12:19:33.478Z,98.04
2023-05-25T12:22:01.869Z,99.35
2023-05-25T12:24:30.424Z,98.63
2023-05-25T12:26:59.218Z,100.04
2023-05-25T12:29:29.498Z,100.08
2023-05-25T12:32:03.757Z,102.18
2023-05-25T12:34:31.990Z,98.77
2023-05-25T12:37:01.513Z,101.18
2023-05-25T12:39:39.467Z,98.35
2023-05-25T12:42:15.161Z,92.11
2023-05-25T12:44:46.561Z,91.44
2023-05-25T12:47:16.342Z,92.75
2023-05-25T12:49:45.869Z,92.52
2023-05-25T12:52:34.330Z,91.89
2023-05-25T12:55:20.591Z,88.38
2023-05-25T12:57:52.476Z,89.72
2023-05-25T13:00:26.662Z,88.17
2023-05-25T13:02:55.689Z,90.73
2023-05-25T13:05:25.348Z,85.99
2023-05-25T13:07:55.465Z,90.82
2023-05-25T13:10:24.051Z,89.03
2023-05-25T13:12:55.579Z,91.89
2023-05-25T13:15:26.757Z,91.64
2023-05-25T13:17:56.419Z,93.04
2023-05-25T13:20:26.541Z,95.49
2023-05-25T13:22:55.732Z,92.89
2023-05-25T13:25:27.029Z,89.34
2023-05-25T13:27:56.958Z,92.06
2023-05-25T13:30:26.953Z,93.21
2023-05-25T13:32:55.366Z,91.54
2023-05-25T13:35:37.523Z,95.29
2023-05-25T13:38:06.480Z,94.07
2023-05-25T13:40:34.897Z,90.32
2023-05-25T13:43:03.301Z,91.60
2023-05-25T13:45:33.561Z,89.23
2023-05-25T13:48:01.921Z,84.97
2023-05-25T13:50:30.612Z,83.87
2023-05-25T13:52:58.884Z,84.16
2023-05-25T13:55:27.179Z,81.52
2023-05-25T13:57:55.702Z,82.61
2023-05-25T14:00:24.151Z,78.77
2023-05-25T14:02:53.925Z,79.59
2023-05-25T14:05:22.436Z,83.78
2023-05-25T14:07:50.955Z,88.76
2023-05-25T14:10:19.593Z,88.98
2023-05-25T14:12:47.887Z,87.49
2023-05-25T14:15:16.148Z,84.19
2023-05-25T14:17:44.417Z,82.26
2023-05-25T14:20:20.755Z,82.46
2023-05-25T14:22:49.174Z,83.58
2023-05-25T14:25:17.440Z,80.43
2023-05-25T14:27:45.692Z,75.50
2023-05-25T14:30:14.322Z,75.94
2023-05-25T14:32:42.578Z,81.50
2023-05-25T14:35:11.120Z,83.98
2023-05-25T14:37:41.595Z,78.04
2023-05-25T14:40:10.981Z,75.97
2023-05-25T14:42:39.356Z,75.57
2023-05-25T14:45:10.954Z,75.46
2023-05-25T14:47:40.813Z,74.24
2023-05-25T14:50:09.821Z,78.64
2023-05-25T14:52:38.078Z,81.01
2023-05-25T14:55:09.082Z,81.19
2023-05-25T14:57:37.418Z,83.68
2023-05-25T15:00:06.467Z,82.91
2023-05-25T15:02:34.906Z,82.55
2023-05-25T15:05:03.313Z,82.99
2023-05-25T15:07:32.796Z,83.73
2023-05-25T15:10:03.357Z,82.29
2023-05-25T15:12:33.062Z,79.38
2023-05-25T15:15:01.376Z,77.43
2023-05-25T15:17:29.610Z,75.26
2023-05-25T15:19:57.919Z,78.18
2023-05-25T15:22:26.266Z,78.65
2023-05-25T15:24:54.521Z,79.75
2023-05-25T15:27:22.789Z,85.03
2023-05-25T15:29:52.430Z,86.13
2023-05-25T15:32:20.681Z,89.79
2023-05-25T15:34:48.934Z,84.77
2023-05-25T15:37:17.153Z,85.32
2023-05-25T15:39:45.407Z,79.55
2023-05-25T15:42:13.653Z,83.61
2023-05-25T15:44:42.193Z,80.11
2023-05-25T15:47:11.864Z,83.35
2023-05-25T15:49:40.837Z,84.90
2023-05-25T15:52:09.076Z,87.99
2023-05-25T15:54:37.309Z,86.73
2023-05-25T15:57:06.322Z,86.80
2023-05-25T15:59:34.533Z,87.70
2023-05-25T16:02:02.838Z,88.01
2023-05-25T16:04:32.506Z,88.89
2023-05-25T16:07:01.376Z,86.58
2023-05-25T16:09:29.960Z,85.31
2023-05-25T16:11:58.245Z,84.03
2023-05-25T16:14:26.653Z,81.75
2023-05-25T16:16:54.964Z,82.39
2023-05-25T16:19:23.272Z,86.60
2023-05-25T16:21:53.412Z,88.22
2023-05-25T16:24:21.699Z,89.47
2023-05-25T16:26:50.009Z,87.71
2023-05-25T16:29:18.434Z,91.37
2023-05-25T16:31:46.756Z,88.25
2023-05-25T16:34:15.040Z,84.29
2023-05-25T16:36:43.272Z,82.86
2023-05-25T16:39:12.959Z,86.83
2023-05-25T16:41:41.959Z,90.50
2023-05-25T16:44:11.578Z,90.43
2023-05-25T16:46:39.848Z,90.68
2023-05-25T16:49:08.166Z,92.05
2023-05-25T16:51:37.811Z,91.91
2023-05-25T16:54:06.351Z,89.50
2023-05-25T16:56:36.599Z,87.53
2023-05-25T16:59:04.877Z,83.20
2023-05-25T17:01:33.267Z,82.44
2023-05-25T17:04:01.642Z,88.91
2023-05-25T17:06:30.035Z,91.32
2023-05-25T17:08:58.269Z,94.91
2023-05-25T17:11:28.186Z,94.17
2023-05-25T17:13:58.056Z,95.18
2023-05-25T17:16:26.470Z,95.70
2023-05-25T17:18:54.764Z,95.04
2023-05-25T17:21:22.965Z,95.04
2023-05-25T17:23:51.390Z,96.32
2023-05-25T17:26:19.612Z,94.83
2023-05-25T17:28:48.906Z,94.69
2023-05-25T17:31:18.674Z,94.49
2023-05-25T17:33:46.920Z,92.39
2023-05-25T17:36:15.139Z,90.63
2023-05-25T17:38:43.737Z,90.63
2023-05-25T17:41:12.054Z,91.89
2023-05-25T17:43:40.432Z,93.75
2023-05-25T17:46:09.064Z,93.98
2023-05-25T17:48:38.748Z,94.50
2023-05-25T17:51:07.081Z,95.12
2023-05-25T17:53:35.624Z,95.87
2023-05-25T17:56:03.970Z,96.39
2023-05-25T17:58:32.350Z,96.23
2023-05-25T18:01:00.843Z,96.52
2023-05-25T18:03:29.233Z,96.87
2023-05-25T18:05:58.945Z,96.84
2023-05-25T18:08:27.220Z,96.49
2023-05-25T18:10:55.466Z,95.39
2023-05-25T18:13:23.681Z,96.80
2023-05-25T18:15:51.993Z,96.34
2023-05-25T18:18:20.925Z,95.65
2023-05-25T18:20:49.189Z,96.89
2023-05-25T18:23:18.863Z,96.93
2023-05-25T18:25:47.257Z,96.27
2023-05-25T18:28:16.027Z,96.74
2023-05-25T18:30:44.428Z,96.76
2023-05-25T18:33:12.834Z,97.39
2023-05-25T18:35:41.165Z,97.49
2023-05-25T18:38:09.430Z,97.74
2023-05-25T18:40:39.031Z,97.94
2023-05-25T18:43:07.829Z,98.14
2023-05-25T18:45:36.109Z,98.30
2023-05-25T18:48:07.522Z,98.96
2023-05-25T18:50:37.644Z,99.75
2023-05-25T18:53:09.757Z,102.76
2023-05-25T18:55:39.554Z,103.64
2023-05-25T18:58:07.880Z,103.85
2023-05-25T19:00:36.164Z,104.13
2023-05-25T19:03:05.273Z,103.73
2023-05-25T19:05:33.666Z,103.84
2023-05-25T19:08:01.897Z,103.79
2023-05-25T19:10:30.201Z,104.05
2023-05-25T19:12:59.819Z,103.14
2023-05-25T19:15:28.205Z,103.81
2023-05-25T19:17:56.495Z,103.61
2023-05-25T19:20:24.895Z,103.13
2023-05-25T19:22:53.153Z,103.24
2023-05-25T19:25:21.505Z,102.67
2023-05-25T19:27:49.844Z,102.30
2023-05-25T19:30:19.716Z,101.85
2023-05-25T19:32:48.062Z,100.49
2023-05-25T19:35:16.497Z,100.96
2023-05-25T19:37:44.700Z,100.90
2023-05-25T19:40:13.370Z,100.55
2023-05-25T19:42:41.810Z,99.70
2023-05-25T19:45:11.004Z,98.95
2023-05-25T19:47:40.725Z,98.21
2023-05-25T19:50:09.837Z,98.71
2023-05-25T19:52:38.088Z,97.96
2023-05-25T19:55:07.104Z,97.00
2023-05-25T19:57:35.461Z,96.33
2023-05-25T20:00:05.952Z,95.77
2023-05-25T20:02:41.418Z,95.61
2023-05-25T20:05:10.693Z,95.77
2023-05-25T20:07:39.010Z,94.57
2023-05-25T20:10:08.028Z,94.55
2023-05-25T20:12:36.413Z,94.42
2023-05-25T20:15:05.041Z,93.59
2023-05-25T20:17:33.831Z,93.51
2023-05-25T20:20:05.216Z,93.62
2023-05-25T20:22:33.719Z,94.09
2023-05-25T20:25:01.982Z,94.00
2023-05-25T20:27:30.210Z,95.40
2023-05-25T20:29:58.653Z,95.48
2023-05-25T20:32:26.974Z,94.54
2023-05-25T20:34:55.234Z,94.81
2023-05-25T20:37:24.888Z,94.90
2023-05-25T20:39:53.130Z,94.56
2023-05-25T20:42:21.346Z,95.03
2023-05-25T20:44:49.700Z,95.33
2023-05-25T20:47:17.964Z,94.80
2023-05-25T20:49:46.950Z,94.82
2023-05-25T20:52:15.268Z,96.49
2023-05-25T20:54:45.512Z,96.84
2023-05-25T20:57:13.744Z,96.84
2023-05-25T20:59:42.107Z,96.94
2023-05-25T21:02:10.401Z,96.02
2023-05-25T21:04:38.695Z,95.68
2023-05-25T21:07:07.185Z,97.00
2023-05-25T21:09:35.580Z,96.71
2023-05-25T21:12:05.755Z,98.02
2023-05-25T21:14:34.577Z,96.75
2023-05-25T21:17:02.801Z,97.68
2023-05-25T21:19:34.082Z,97.93
2023-05-25T21:22:05.866Z,95.84
2023-05-25T21:24:34.230Z,96.04
2023-05-25T21:27:02.457Z,97.97
2023-05-25T21:29:32.087Z,99.29
2023-05-25T21:32:03.085Z,97.68
2023-05-25T21:34:31.707Z,98.51
2023-05-25T21:36:59.947Z,97.39
2023-05-25T21:39:28.201Z,99.40
2023-05-25T21:41:56.556Z,98.81
2023-05-25T21:44:24.816Z,97.57
2023-05-25T21:46:54.413Z,98.89
2023-05-25T21:49:22.682Z,96.55
2023-05-25T21:51:50.925Z,98.08
2023-05-25T21:54:19.165Z,98.83
2023-05-25T21:56:47.469Z,99.23
2023-05-25T21:59:15.706Z,98.75
2023-05-25T22:01:45.106Z,100.52
2023-05-25T22:04:14.775Z,99.75
2023-05-25T22:06:42.993Z,99.16
2023-05-25T22:09:11.292Z,98.55
2023-05-25T22:11:40.073Z,97.11
2023-05-25T22:14:08.350Z,97.06
2023-05-25T22:16:36.608Z,96.13
2023-05-25T22:19:04.949Z,95.72
2023-05-25T22:21:34.610Z,95.63
2023-05-25T22:24:02.957Z,96.52
2023-05-25T22:26:31.275Z,94.49
2023-05-25T22:28:59.512Z,97.42
2023-05-25T22:31:28.690Z,95.72
2023-05-25T22:33:56.959Z,94.63
2023-05-25T22:36:25.185Z,95.81
2023-05-25T22:38:54.815Z,94.73
2023-05-25T22:41:23.260Z,93.51
2023-05-25T22:43:51.458Z,94.78
2023-05-25T22:46:20.613Z,94.18
2023-05-25T22:48:48.918Z,94.40
2023-05-25T22:51:17.213Z,92.88
2023-05-25T22:53:45.619Z,91.56
2023-05-25T22:56:15.727Z,92.49
2023-05-25T22:58:44.004Z,93.25
2023-05-25T23:01:12.168Z,94.13
2023-05-25T23:03:40.694Z,95.56
2023-05-25T23:06:09.126Z,93.68
2023-05-25T23:08:37.330Z,95.30
2023-05-25T23:11:05.588Z,94.95
2023-05-25T23:13:35.804Z,92.42
2023-05-25T23:16:05.343Z,92.79
2023-05-25T23:18:33.655Z,94.23
2023-05-25T23:21:01.951Z,91.34
2023-05-25T23:23:30.207Z,94.11
2023-05-25T23:25:58.536Z,93.67
2023-05-25T23:28:26.834Z,93.46
2023-05-25T23:30:56.579Z,92.72
2023-05-25T23:33:24.914Z,92.75
2023-05-25T23:35:53.377Z,92.85
2023-05-25T23:38:21.668Z,92.81
2023-05-25T23:40:49.910Z,90.69
2023-05-25T23:43:18.306Z,91.29
2023-05-25T23:45:46.823Z,92.96
2023-05-25T23:48:16.788Z,92.47
2023-05-25T23:50:45.061Z,91.50
2023-05-25T23:53:13.283Z,91.84
2023-05-25T23:55:41.542Z,91.08
2023-05-25T23:58:09.764Z,91.36
